createdAt,value
2023-03-06T00:00:49.002Z,25.87
2023-03-06T00:01:47.997Z,25.84
2023-03-06T00:02:48.991Z,25.88
2023-03-06T00:03:49.089Z,25.86
2023-03-06T00:04:49.035Z,25.90
2023-03-06T00:05:49.073Z,25.84
2023-03-06T00:06:48.049Z,25.87
2023-03-06T00:07:49.063Z,25.81
2023-03-06T00:08:49.061Z,25.78
2023-03-06T00:09:49.052Z,25.93
2023-03-06T00:10:49.043Z,25.84
2023-03-06T00:11:49.056Z,25.75
2023-03-06T00:12:48.124Z,25.71
2023-03-06T00:13:49.102Z,25.85
2023-03-06T00:14:49.073Z,25.85
2023-03-06T00:15:49.176Z,25.77
2023-03-06T00:16:48.080Z,25.80
2023-03-06T00:17:49.119Z,25.88
2023-03-06T00:18:49.126Z,25.89
2023-03-06T00:19:48.155Z,25.92
2023-03-06T00:20:48.166Z,25.94
2023-03-06T00:21:48.207Z,25.98
2023-03-06T00:22:49.258Z,25.90
2023-03-06T00:23:49.486Z,25.97
2023-03-06T00:24:48.354Z,25.85
2023-03-06T00:25:49.426Z,25.95
2023-03-06T00:26:49.477Z,25.86
2023-03-06T00:27:49.529Z,25.87
2023-03-06T00:28:49.628Z,25.86
2023-03-06T00:29:48.659Z,25.78
2023-03-06T00:30:49.722Z,25.82
2023-03-06T00:31:49.952Z,25.82
2023-03-06T00:32:49.845Z,25.78
2023-03-06T00:33:49.905Z,25.80
2023-03-06T00:34:49.937Z,25.76
2023-03-06T00:35:49.075Z,25.80
2023-03-06T00:36:50.042Z,25.77
2023-03-06T00:37:50.081Z,25.73
2023-03-06T00:38:50.140Z,25.68
2023-03-06T00:39:49.171Z,25.68
2023-03-06T00:40:49.211Z,25.65
2023-03-06T00:41:49.253Z,25.61
2023-03-06T00:42:50.300Z,25.68
2023-03-06T00:43:50.357Z,25.65
2023-03-06T00:44:50.391Z,25.60
2023-03-06T00:45:50.488Z,25.64
2023-03-06T00:46:49.458Z,25.62
2023-03-06T00:47:50.494Z,25.62
2023-03-06T00:48:50.554Z,25.58
2023-03-06T00:49:49.567Z,25.59
2023-03-06T00:50:49.622Z,25.55
2023-03-06T00:51:49.656Z,25.52
2023-03-06T00:52:49.665Z,25.54
2023-03-06T00:53:50.717Z,25.57
2023-03-06T00:54:50.740Z,25.50
2023-03-06T00:55:50.765Z,25.52
2023-03-06T00:56:50.804Z,25.52
2023-03-06T00:57:50.817Z,25.45
2023-03-06T00:58:50.866Z,25.52
2023-03-06T00:59:50.884Z,25.49
2023-03-06T01:00:50.917Z,25.48
2023-03-06T01:01:50.953Z,25.48
2023-03-06T01:02:50.957Z,25.47
2023-03-06T01:03:51.015Z,25.47
2023-03-06T01:04:51.004Z,25.44
2023-03-06T01:05:51.061Z,25.51
2023-03-06T01:06:50.057Z,25.47
2023-03-06T01:07:51.096Z,25.45
2023-03-06T01:08:51.124Z,25.41
2023-03-06T01:09:51.129Z,25.38
2023-03-06T01:10:51.186Z,25.43
2023-03-06T01:11:50.176Z,25.42
2023-03-06T01:12:51.212Z,25.42
2023-03-06T01:13:51.234Z,25.40
2023-03-06T01:14:50.255Z,25.44
2023-03-06T01:15:51.258Z,25.39
2023-03-06T01:16:51.315Z,25.36
2023-03-06T01:17:51.293Z,25.39
2023-03-06T01:18:51.347Z,25.38
2023-03-06T01:19:51.334Z,25.38
2023-03-06T01:20:51.376Z,25.35
2023-03-06T01:21:51.380Z,25.39
2023-03-06T01:22:51.434Z,25.38
2023-03-06T01:23:51.466Z,25.36
2023-03-06T01:24:50.428Z,25.41
2023-03-06T01:25:51.464Z,25.35
2023-03-06T01:26:50.485Z,25.36
2023-03-06T01:27:50.486Z,25.38
2023-03-06T01:28:51.556Z,25.35
2023-03-06T01:29:51.522Z,25.28
2023-03-06T01:30:51.540Z,25.31
2023-03-06T01:31:51.561Z,25.28
2023-03-06T01:32:51.566Z,25.28
2023-03-06T01:33:51.608Z,25.35
2023-03-06T01:34:51.610Z,25.33
2023-03-06T01:35:51.671Z,25.37
2023-03-06T01:36:51.674Z,25.33
2023-03-06T01:37:51.653Z,25.35
2023-03-06T01:38:51.681Z,25.33
2023-03-06T01:39:51.707Z,25.34
2023-03-06T01:40:51.710Z,25.31
2023-03-06T01:41:51.719Z,25.30
2023-03-06T01:42:51.724Z,25.30
2023-03-06T01:43:51.752Z,25.27
2023-03-06T01:44:51.735Z,25.34
2023-03-06T01:45:51.829Z,25.33
2023-03-06T01:46:50.758Z,25.36
2023-03-06T01:47:51.768Z,25.30
2023-03-06T01:48:51.785Z,25.27
2023-03-06T01:49:51.783Z,25.33
2023-03-06T01:50:51.782Z,25.31
2023-03-06T01:51:51.802Z,25.27
2023-03-06T01:52:51.799Z,25.29
2023-03-06T01:53:51.821Z,25.26
2023-03-06T01:54:51.825Z,25.26
2023-03-06T01:55:50.837Z,25.27
2023-03-06T01:56:51.819Z,25.29
2023-03-06T01:57:51.834Z,25.24
2023-03-06T01:58:51.842Z,25.29
2023-03-06T01:59:51.849Z,25.26
2023-03-06T02:00:51.917Z,25.29
2023-03-06T02:01:51.852Z,25.33
2023-03-06T02:02:51.877Z,25.31
2023-03-06T02:03:51.900Z,25.27
2023-03-06T02:04:51.866Z,25.26
2023-03-06T02:05:51.887Z,25.29
2023-03-06T02:06:51.886Z,25.29
2023-03-06T02:07:51.905Z,25.28
2023-03-06T02:08:51.907Z,25.18
2023-03-06T02:09:50.894Z,25.22
2023-03-06T02:10:51.896Z,25.28
2023-03-06T02:11:52.008Z,25.28
2023-03-06T02:12:51.901Z,25.27
2023-03-06T02:13:51.908Z,25.25
2023-03-06T02:14:51.906Z,25.20
2023-03-06T02:15:50.890Z,25.25
2023-03-06T02:16:51.969Z,25.21
2023-03-06T02:17:51.895Z,25.24
2023-03-06T02:18:51.907Z,25.31
2023-03-06T02:19:51.898Z,25.21
2023-03-06T02:20:51.891Z,25.25
2023-03-06T02:21:51.885Z,25.25
2023-03-06T02:22:51.884Z,25.30
2023-03-06T02:23:51.882Z,25.27
2023-03-06T02:24:51.885Z,25.25
2023-03-06T02:25:51.879Z,25.24
2023-03-06T02:26:50.869Z,25.24
2023-03-06T02:27:51.883Z,25.23
2023-03-06T02:28:52.811Z,25.24
2023-03-06T02:29:51.856Z,25.26
2023-03-06T02:30:51.946Z,25.24
2023-03-06T02:31:51.845Z,25.24
2023-03-06T02:32:51.881Z,25.20
2023-03-06T02:33:50.839Z,25.23
2023-03-06T02:34:51.854Z,25.24
2023-03-06T02:35:51.869Z,25.20
2023-03-06T02:36:50.844Z,25.20
2023-03-06T02:37:52.087Z,25.20
2023-03-06T02:38:50.832Z,25.22
2023-03-06T02:39:51.837Z,25.23
2023-03-06T02:40:51.839Z,25.19
2023-03-06T02:41:50.840Z,25.23
2023-03-06T02:42:51.830Z,25.15
2023-03-06T02:43:51.843Z,25.18
2023-03-06T02:44:51.861Z,25.25
2023-03-06T02:45:51.891Z,25.19
2023-03-06T02:46:51.805Z,25.23
2023-03-06T02:47:51.809Z,25.19
2023-03-06T02:48:51.820Z,25.20
2023-03-06T02:49:51.858Z,25.19
2023-03-06T02:50:51.836Z,25.22
2023-03-06T02:51:51.824Z,25.19
2023-03-06T02:52:50.807Z,25.26
2023-03-06T02:53:51.811Z,25.18
2023-03-06T02:54:51.801Z,25.22
2023-03-06T02:55:51.807Z,25.22
2023-03-06T02:56:51.877Z,25.20
2023-03-06T02:57:51.785Z,25.20
2023-03-06T02:58:51.791Z,25.27
2023-03-06T02:59:50.822Z,25.20
2023-03-06T03:00:51.771Z,25.20
2023-03-06T03:01:51.850Z,25.23
2023-03-06T03:02:50.761Z,25.20
2023-03-06T03:03:51.773Z,25.20
2023-03-06T03:04:51.862Z,25.25
2023-03-06T03:05:51.770Z,25.20
2023-03-06T03:06:51.765Z,25.25
2023-03-06T03:07:51.757Z,25.22
2023-03-06T03:08:51.791Z,25.22
2023-03-06T03:09:51.770Z,25.23
2023-03-06T03:10:50.753Z,25.20
2023-03-06T03:11:51.736Z,25.26
2023-03-06T03:12:51.738Z,25.22
2023-03-06T03:13:51.730Z,25.22
2023-03-06T03:14:50.725Z,25.23
2023-03-06T03:15:51.779Z,25.26
2023-03-06T03:16:51.730Z,25.23
2023-03-06T03:17:50.722Z,25.29
2023-03-06T03:18:50.707Z,25.26
2023-03-06T03:19:51.720Z,25.24
2023-03-06T03:20:50.722Z,25.23
2023-03-06T03:21:50.704Z,25.24
2023-03-06T03:22:51.702Z,25.27
2023-03-06T03:23:50.722Z,25.20
2023-03-06T03:24:51.781Z,25.25
2023-03-06T03:25:51.710Z,25.25
2023-03-06T03:26:51.696Z,25.26
2023-03-06T03:27:51.712Z,25.23
2023-03-06T03:28:51.709Z,25.22
2023-03-06T03:29:51.689Z,25.25
2023-03-06T03:30:51.737Z,25.23
2023-03-06T03:31:51.721Z,25.22
2023-03-06T03:32:51.689Z,25.19
2023-03-06T03:33:51.704Z,25.21
2023-03-06T03:34:50.681Z,25.19
2023-03-06T03:35:51.747Z,25.23
2023-03-06T03:36:51.674Z,25.25
2023-03-06T03:37:51.668Z,25.25
2023-03-06T03:38:51.674Z,25.25
2023-03-06T03:39:51.684Z,25.23
2023-03-06T03:40:51.676Z,25.27
2023-03-06T03:41:51.668Z,25.20
2023-03-06T03:42:51.661Z,25.22
2023-03-06T03:43:51.648Z,25.22
2023-03-06T03:44:51.652Z,25.23
2023-03-06T03:45:51.653Z,25.23
2023-03-06T03:46:50.746Z,25.23
2023-03-06T03:47:52.305Z,25.22
2023-03-06T03:48:51.664Z,25.23
2023-03-06T03:49:51.643Z,25.19
2023-03-06T03:50:50.665Z,25.19
2023-03-06T03:51:51.673Z,25.23
2023-03-06T03:52:51.659Z,25.18
2023-03-06T03:53:51.666Z,25.21
2023-03-06T03:54:51.667Z,25.21
2023-03-06T03:55:51.689Z,25.21
2023-03-06T03:56:51.682Z,25.20
2023-03-06T03:57:51.675Z,25.21
2023-03-06T03:58:50.669Z,25.19
2023-03-06T03:59:51.680Z,25.21
2023-03-06T04:00:51.695Z,25.20
2023-03-06T04:01:51.729Z,25.22
2023-03-06T04:02:51.679Z,25.19
2023-03-06T04:03:51.695Z,25.21
2023-03-06T04:04:51.772Z,25.15
2023-03-06T04:05:51.691Z,25.19
2023-03-06T04:06:51.684Z,25.20
2023-03-06T04:07:51.702Z,25.18
2023-03-06T04:08:51.717Z,25.18
2023-03-06T04:09:51.729Z,25.18
2023-03-06T04:10:51.765Z,25.23
2023-03-06T04:11:51.745Z,25.18
2023-03-06T04:12:51.749Z,25.18
2023-03-06T04:13:51.762Z,25.18
2023-03-06T04:14:51.779Z,25.18
2023-03-06T04:15:51.865Z,25.15
2023-03-06T04:16:51.790Z,25.18
2023-03-06T04:17:51.776Z,25.20
2023-03-06T04:18:51.788Z,25.14
2023-03-06T04:19:51.831Z,25.17
2023-03-06T04:20:51.818Z,25.14
2023-03-06T04:21:51.804Z,25.11
2023-03-06T04:22:50.810Z,25.20
2023-03-06T04:23:51.809Z,25.16
2023-03-06T04:24:51.837Z,25.18
2023-03-06T04:25:51.845Z,25.16
2023-03-06T04:26:51.847Z,25.20
2023-03-06T04:27:51.854Z,25.17
2023-03-06T04:28:51.833Z,25.17
2023-03-06T04:29:51.846Z,25.20
2023-03-06T04:30:51.894Z,25.20
2023-03-06T04:31:51.910Z,25.16
2023-03-06T04:32:51.927Z,25.17
2023-03-06T04:33:51.959Z,25.20
2023-03-06T04:34:51.967Z,25.17
2023-03-06T04:35:52.100Z,25.20
2023-03-06T04:36:50.963Z,25.20
2023-03-06T04:37:51.981Z,25.20
2023-03-06T04:38:52.061Z,25.14
2023-03-06T04:39:51.026Z,25.09
2023-03-06T04:40:52.044Z,25.18
2023-03-06T04:41:51.076Z,25.16
2023-03-06T04:42:51.104Z,25.13
2023-03-06T04:43:51.108Z,25.14
2023-03-06T04:44:52.090Z,25.20
2023-03-06T04:45:52.209Z,25.14
2023-03-06T04:46:52.097Z,25.16
2023-03-06T04:47:52.099Z,25.14
2023-03-06T04:48:52.115Z,25.16
2023-03-06T04:49:52.150Z,25.20
2023-03-06T04:50:51.167Z,25.17
2023-03-06T04:51:52.207Z,25.18
2023-03-06T04:52:52.194Z,25.17
2023-03-06T04:53:52.213Z,25.14
2023-03-06T04:54:52.244Z,25.20
2023-03-06T04:55:52.265Z,25.20
2023-03-06T04:56:51.279Z,25.18
2023-03-06T04:57:52.305Z,25.17
2023-03-06T04:58:52.304Z,25.20
2023-03-06T04:59:52.306Z,25.13
2023-03-06T05:00:52.384Z,25.20
2023-03-06T05:01:52.409Z,25.17
2023-03-06T05:02:52.371Z,25.18
2023-03-06T05:03:52.388Z,25.17
2023-03-06T05:04:51.423Z,25.20
2023-03-06T05:05:52.406Z,25.17
2023-03-06T05:06:52.422Z,25.13
2023-03-06T05:07:52.470Z,25.21
2023-03-06T05:08:51.465Z,25.16
2023-03-06T05:09:52.494Z,25.16
2023-03-06T05:10:52.511Z,25.21
2023-03-06T05:11:51.555Z,25.20
2023-03-06T05:12:51.603Z,25.20
2023-03-06T05:13:52.592Z,25.20
2023-03-06T05:14:52.624Z,25.17
2023-03-06T05:15:52.669Z,25.19
2023-03-06T05:16:52.690Z,25.14
2023-03-06T05:17:52.784Z,25.17
2023-03-06T05:18:53.422Z,25.20
2023-03-06T05:19:52.764Z,25.17
2023-03-06T05:20:52.776Z,25.16
2023-03-06T05:21:51.814Z,25.19
2023-03-06T05:22:52.818Z,25.16
2023-03-06T05:23:52.921Z,25.14
2023-03-06T05:24:52.853Z,25.16
2023-03-06T05:25:52.897Z,25.13
2023-03-06T05:26:52.914Z,25.13
2023-03-06T05:27:52.935Z,25.14
2023-03-06T05:28:52.948Z,25.19
2023-03-06T05:29:52.983Z,25.16
2023-03-06T05:30:53.032Z,25.10
2023-03-06T05:31:53.164Z,25.16
2023-03-06T05:32:52.121Z,25.14
2023-03-06T05:33:53.094Z,25.12
2023-03-06T05:34:53.185Z,25.17
2023-03-06T05:35:53.177Z,25.10
2023-03-06T05:36:53.198Z,25.13
2023-03-06T05:37:53.220Z,25.16
2023-03-06T05:38:53.253Z,25.17
2023-03-06T05:39:53.314Z,25.19
2023-03-06T05:40:53.324Z,25.17
2023-03-06T05:41:53.362Z,25.19
2023-03-06T05:42:53.385Z,25.15
2023-03-06T05:43:53.418Z,25.17
2023-03-06T05:44:53.448Z,25.08
2023-03-06T05:45:53.503Z,25.12
2023-03-06T05:46:53.647Z,25.19
2023-03-06T05:47:53.544Z,25.11
2023-03-06T05:48:53.564Z,25.16
2023-03-06T05:49:53.609Z,25.13
2023-03-06T05:50:53.657Z,25.08
2023-03-06T05:51:52.691Z,25.13
2023-03-06T05:52:53.756Z,25.19
2023-03-06T05:53:53.815Z,25.12
2023-03-06T05:54:53.832Z,25.15
2023-03-06T05:55:53.893Z,25.14
2023-03-06T05:56:53.986Z,25.08
2023-03-06T05:57:53.944Z,25.14
2023-03-06T05:58:53.973Z,25.20
2023-03-06T05:59:54.016Z,25.16
2023-03-06T06:00:54.052Z,25.12
2023-03-06T06:01:54.073Z,25.17
2023-03-06T06:02:54.105Z,25.12
2023-03-06T06:03:54.277Z,25.11
2023-03-06T06:04:53.186Z,25.19
2023-03-06T06:05:54.209Z,25.18
2023-03-06T06:06:54.245Z,25.12
2023-03-06T06:07:54.301Z,25.14
2023-03-06T06:08:54.349Z,25.17
2023-03-06T06:09:54.376Z,25.18
2023-03-06T06:10:54.440Z,25.12
2023-03-06T06:11:54.493Z,25.15
2023-03-06T06:12:54.492Z,25.07
2023-03-06T06:13:54.514Z,25.11
2023-03-06T06:14:54.565Z,25.08
2023-03-06T06:15:54.624Z,25.10
2023-03-06T06:16:53.679Z,25.12
2023-03-06T06:17:54.688Z,25.11
2023-03-06T06:18:54.729Z,25.11
2023-03-06T06:19:54.788Z,25.20
2023-03-06T06:20:56.033Z,25.08
2023-03-06T06:21:54.879Z,25.15
2023-03-06T06:22:54.932Z,25.15
2023-03-06T06:23:54.945Z,25.14
2023-03-06T06:24:54.007Z,25.17
2023-03-06T06:25:55.012Z,25.10
2023-03-06T06:26:55.032Z,25.09
2023-03-06T06:27:55.408Z,25.24
2023-03-06T06:28:55.102Z,25.28
2023-03-06T06:29:55.154Z,25.50
2023-03-06T06:30:55.205Z,25.55
2023-03-06T06:31:55.220Z,25.46
2023-03-06T06:32:54.288Z,25.50
2023-03-06T06:33:55.317Z,25.63
2023-03-06T06:34:55.332Z,25.73
2023-03-06T06:35:55.436Z,25.97
2023-03-06T06:36:54.456Z,25.99
2023-03-06T06:37:55.459Z,26.03
2023-03-06T06:38:55.551Z,26.06
2023-03-06T06:39:55.568Z,26.13
2023-03-06T06:41:29.167Z,26.24
2023-03-06T06:42:14.575Z,26.12
2023-03-06T06:42:55.641Z,26.36
2023-03-06T06:43:57.104Z,26.45
2023-03-06T06:44:55.647Z,26.48
2023-03-06T06:46:09.169Z,26.61
2023-03-06T06:47:55.600Z,26.64
2023-03-06T06:48:54.595Z,26.74
2023-03-06T06:49:54.696Z,26.73
2023-03-06T06:50:54.598Z,26.76
2023-03-06T06:51:55.556Z,26.90
2023-03-06T06:52:55.548Z,27.09
2023-03-06T06:53:55.533Z,27.04
2023-03-06T06:54:55.535Z,27.15
2023-03-06T06:55:55.513Z,27.29
2023-03-06T06:56:55.544Z,27.46
2023-03-06T06:57:55.522Z,27.92
2023-03-06T06:59:01.343Z,27.72
2023-03-06T06:59:55.532Z,27.69
2023-03-06T07:00:55.483Z,27.79
2023-03-06T07:01:55.516Z,27.97
2023-03-06T07:02:55.885Z,28.05
2023-03-06T07:03:55.516Z,28.20
2023-03-06T07:05:04.135Z,28.24
2023-03-06T07:05:55.455Z,28.21
2023-03-06T07:06:54.438Z,28.32
2023-03-06T07:07:55.469Z,28.30
2023-03-06T07:08:56.645Z,28.31
2023-03-06T07:09:55.432Z,28.37
2023-03-06T07:10:55.447Z,28.55
2023-03-06T07:11:55.424Z,28.55
2023-03-06T07:12:55.436Z,28.78
2023-03-06T07:13:55.407Z,28.78
2023-03-06T07:14:55.401Z,28.86
2023-03-06T07:15:55.415Z,28.88
2023-03-06T07:16:55.376Z,29.04
2023-03-06T07:17:55.387Z,29.07
2023-03-06T07:18:54.354Z,29.30
2023-03-06T07:19:55.384Z,29.47
2023-03-06T07:20:55.357Z,29.52
2023-03-06T07:21:54.383Z,29.58
2023-03-06T07:22:54.355Z,29.65
2023-03-06T07:23:55.318Z,29.57
2023-03-06T07:24:55.334Z,29.77
2023-03-06T07:25:55.316Z,29.83
2023-03-06T07:26:55.392Z,29.91
2023-03-06T07:27:55.473Z,30.09
2023-03-06T07:28:55.359Z,30.08
2023-03-06T07:29:55.279Z,30.14
2023-03-06T07:30:55.308Z,30.18
2023-03-06T07:31:55.369Z,30.15
2023-03-06T07:32:55.326Z,30.24
2023-03-06T07:33:55.246Z,30.14
2023-03-06T07:35:12.920Z,30.24
2023-03-06T07:35:55.286Z,30.32
2023-03-06T07:36:55.227Z,30.27
2023-03-06T07:37:55.236Z,30.39
2023-03-06T07:38:55.323Z,30.45
2023-03-06T07:39:55.219Z,30.43
2023-03-06T07:40:27.473Z,55.98
2023-03-06T07:40:55.230Z,30.42
2023-03-06T07:41:55.182Z,30.46
2023-03-06T07:42:57.691Z,30.49
2023-03-06T07:43:55.175Z,30.62
2023-03-06T07:44:55.176Z,30.63
2023-03-06T07:45:55.188Z,30.79
2023-03-06T07:46:54.245Z,30.87
2023-03-06T07:47:55.171Z,30.96
2023-03-06T07:48:55.164Z,30.92
2023-03-06T07:49:55.185Z,31.00
2023-03-06T07:50:55.151Z,30.99
2023-03-06T07:51:41.598Z,54.45
2023-03-06T07:51:55.118Z,31.28
2023-03-06T07:52:55.152Z,31.21
2023-03-06T07:53:55.444Z,31.45
2023-03-06T07:54:55.136Z,31.19
2023-03-06T07:55:55.118Z,30.01
2023-03-06T07:56:55.093Z,30.03
2023-03-06T07:57:54.085Z,30.24
2023-03-06T07:58:05.872Z,54.72
2023-03-06T07:58:57.063Z,30.24
2023-03-06T07:59:55.086Z,30.39
2023-03-06T08:00:55.854Z,30.35
2023-03-06T08:01:55.081Z,30.43
2023-03-06T08:02:55.149Z,30.64
2023-03-06T08:03:55.138Z,30.68
2023-03-06T08:04:55.028Z,30.82
2023-03-06T08:05:54.051Z,30.80
2023-03-06T08:06:55.011Z,30.97
2023-03-06T08:07:55.014Z,31.13
2023-03-06T08:08:55.021Z,31.10
2023-03-06T08:09:53.997Z,31.25
2023-03-06T08:10:54.985Z,31.39
2023-03-06T08:11:54.974Z,31.36
2023-03-06T08:12:54.959Z,31.43
2023-03-06T08:13:55.083Z,31.66
2023-03-06T08:14:54.972Z,31.75
2023-03-06T08:15:55.025Z,32.01
2023-03-06T08:16:55.036Z,31.98
2023-03-06T08:17:54.090Z,32.08
2023-03-06T08:18:50.080Z,52.11
2023-03-06T08:19:55.177Z,32.58
2023-03-06T08:20:00.298Z,51.95
2023-03-06T08:20:55.177Z,32.30
2023-03-06T08:21:55.191Z,32.46
2023-03-06T08:22:55.239Z,32.51
2023-03-06T08:23:32.776Z,51.77
2023-03-06T08:23:55.309Z,32.74
2023-03-06T08:24:55.276Z,32.59
2023-03-06T08:25:55.311Z,32.73
2023-03-06T08:26:55.315Z,33.28
2023-03-06T08:27:55.354Z,33.06
2023-03-06T08:28:55.411Z,33.03
2023-03-06T08:29:54.403Z,33.41
2023-03-06T08:30:55.427Z,33.26
2023-03-06T08:31:55.446Z,33.45
2023-03-06T08:32:55.509Z,33.42
2023-03-06T08:33:55.494Z,33.57
2023-03-06T08:34:55.482Z,33.53
2023-03-06T08:35:54.585Z,33.58
2023-03-06T08:36:54.511Z,33.60
2023-03-06T08:37:55.522Z,33.47
2023-03-06T08:38:55.561Z,33.39
2023-03-06T08:39:55.553Z,33.53
2023-03-06T08:40:55.554Z,33.56
2023-03-06T08:41:54.553Z,33.65
2023-03-06T08:42:55.615Z,33.65
2023-03-06T08:43:54.599Z,33.71
2023-03-06T08:44:54.619Z,33.91
2023-03-06T08:45:55.618Z,34.18
2023-03-06T08:46:54.607Z,34.24
2023-03-06T08:47:54.606Z,34.33
2023-03-06T08:48:55.902Z,34.27
2023-03-06T08:49:55.606Z,34.17
2023-03-06T08:50:55.698Z,34.05
2023-03-06T08:51:55.591Z,34.58
2023-03-06T08:52:54.622Z,34.78
2023-03-06T08:53:55.660Z,34.70
2023-03-06T08:54:19.944Z,52.78
2023-03-06T08:54:55.637Z,35.00
2023-03-06T08:55:55.662Z,34.96
2023-03-06T08:56:55.662Z,34.81
2023-03-06T08:57:54.429Z,52.79
2023-03-06T08:58:55.230Z,52.54
2023-03-06T08:59:55.093Z,53.67
2023-03-06T09:00:54.842Z,53.99
2023-03-06T09:01:54.740Z,34.93
2023-03-06T09:02:55.657Z,34.74
2023-03-06T09:03:54.649Z,34.96
2023-03-06T09:04:55.662Z,35.12
2023-03-06T09:05:54.674Z,34.93
2023-03-06T09:06:55.712Z,34.95
2023-03-06T09:07:54.680Z,34.98
2023-03-06T09:08:32.948Z,52.65
2023-03-06T09:08:55.685Z,34.91
2023-03-06T09:09:35.674Z,51.90
2023-03-06T09:09:55.689Z,34.96
2023-03-06T09:10:55.716Z,35.15
2023-03-06T09:11:52.447Z,51.25
2023-03-06T09:12:55.024Z,51.30
2023-03-06T09:13:53.732Z,51.40
2023-03-06T09:14:54.525Z,51.07
2023-03-06T09:15:55.745Z,35.64
2023-03-06T09:16:55.763Z,35.47
2023-03-06T09:17:55.725Z,35.51
2023-03-06T09:18:55.749Z,35.49
2023-03-06T09:19:55.727Z,35.81
2023-03-06T09:20:31.571Z,49.56
2023-03-06T09:20:55.741Z,35.83
2023-03-06T09:21:32.549Z,49.34
2023-03-06T09:21:54.768Z,36.31
2023-03-06T09:22:31.643Z,49.32
2023-03-06T09:22:55.775Z,35.92
2023-03-06T09:23:32.690Z,49.55
2023-03-06T09:23:55.812Z,36.05
2023-03-06T09:24:31.353Z,49.24
2023-03-06T09:24:54.799Z,36.35
2023-03-06T09:25:32.350Z,50.44
2023-03-06T09:25:55.826Z,35.95
2023-03-06T09:26:45.085Z,50.25
2023-03-06T09:26:55.822Z,36.13
2023-03-06T09:27:32.288Z,50.00
2023-03-06T09:28:10.516Z,36.16
2023-03-06T09:28:31.734Z,49.80
2023-03-06T09:28:55.856Z,36.47
2023-03-06T09:29:32.363Z,49.66
2023-03-06T09:29:55.841Z,36.25
2023-03-06T09:30:32.726Z,49.79
2023-03-06T09:30:55.899Z,36.42
2023-03-06T09:31:55.840Z,36.28
2023-03-06T09:32:51.065Z,49.29
2023-03-06T09:33:51.988Z,49.11
2023-03-06T09:34:53.058Z,48.95
2023-03-06T09:35:51.793Z,48.71
2023-03-06T09:36:56.943Z,48.51
2023-03-06T09:37:51.878Z,48.78
2023-03-06T09:38:51.704Z,48.73
2023-03-06T09:39:51.684Z,48.62
2023-03-06T09:40:50.657Z,48.21
2023-03-06T09:41:51.700Z,47.87
2023-03-06T09:41:55.762Z,37.05
2023-03-06T09:42:51.647Z,47.89
2023-03-06T09:43:51.723Z,47.87
2023-03-06T09:44:51.674Z,47.60
2023-03-06T09:45:51.720Z,47.41
2023-03-06T09:46:51.612Z,47.50
2023-03-06T09:47:51.622Z,47.29
2023-03-06T09:48:51.607Z,47.09
2023-03-06T09:49:51.622Z,47.46
2023-03-06T09:50:51.604Z,47.29
2023-03-06T09:51:51.595Z,47.65
2023-03-06T09:52:51.617Z,47.65
2023-03-06T09:53:50.708Z,47.69
2023-03-06T09:54:51.976Z,47.71
2023-03-06T09:55:51.618Z,47.74
2023-03-06T09:56:50.607Z,47.52
2023-03-06T09:57:54.001Z,47.46
2023-03-06T09:58:51.737Z,47.49
2023-03-06T09:59:51.667Z,47.26
2023-03-06T10:00:51.616Z,47.25
2023-03-06T10:01:50.737Z,47.39
2023-03-06T10:02:51.162Z,47.54
2023-03-06T10:03:51.564Z,47.91
2023-03-06T10:04:51.547Z,48.30
2023-03-06T10:05:51.515Z,48.24
2023-03-06T10:06:50.599Z,48.25
2023-03-06T10:07:51.872Z,47.95
2023-03-06T10:08:51.611Z,47.41
2023-03-06T10:09:51.549Z,47.86
2023-03-06T10:10:51.475Z,48.36
2023-03-06T10:11:50.529Z,48.63
2023-03-06T10:12:51.543Z,48.71
2023-03-06T10:13:51.461Z,48.06
2023-03-06T10:14:50.487Z,48.18
2023-03-06T10:15:51.455Z,48.25
2023-03-06T10:16:50.531Z,47.71
2023-03-06T10:17:51.532Z,47.47
2023-03-06T10:18:51.474Z,47.18
2023-03-06T10:19:51.509Z,47.38
2023-03-06T10:20:51.440Z,47.34
2023-03-06T10:21:50.532Z,47.92
2023-03-06T10:23:00.864Z,47.56
2023-03-06T10:23:51.467Z,47.40
2023-03-06T10:24:50.414Z,48.59
2023-03-06T10:25:50.478Z,49.13
2023-03-06T10:26:51.605Z,48.64
2023-03-06T10:27:50.399Z,47.85
2023-03-06T10:28:51.415Z,48.11
2023-03-06T10:30:02.821Z,34.42
2023-03-06T10:30:56.207Z,34.36
2023-03-06T10:31:56.229Z,34.50
2023-03-06T10:32:56.266Z,34.69
2023-03-06T10:33:10.075Z,46.82
2023-03-06T10:33:56.167Z,34.65
2023-03-06T10:34:10.021Z,46.61
2023-03-06T10:34:56.149Z,34.51
2023-03-06T10:35:56.217Z,34.78
2023-03-06T10:36:56.110Z,34.84
2023-03-06T10:37:56.107Z,34.84
2023-03-06T10:38:56.123Z,34.92
2023-03-06T10:39:56.098Z,34.86
2023-03-06T10:40:56.088Z,34.76
2023-03-06T10:41:56.093Z,35.07
2023-03-06T10:43:09.588Z,34.89
2023-03-06T10:43:56.112Z,35.01
2023-03-06T10:44:56.071Z,35.06
2023-03-06T10:45:56.073Z,35.28
2023-03-06T10:46:55.045Z,36.29
2023-03-06T10:47:56.058Z,35.82
2023-03-06T10:48:56.473Z,35.48
2023-03-06T10:49:56.044Z,36.46
2023-03-06T10:50:55.037Z,35.82
2023-03-06T10:51:31.576Z,46.99
2023-03-06T10:51:56.058Z,36.94
2023-03-06T10:52:55.000Z,36.23
2023-03-06T10:53:56.005Z,36.18
2023-03-06T10:54:55.002Z,36.49
2023-03-06T10:55:03.733Z,45.15
2023-03-06T10:55:55.041Z,36.35
2023-03-06T10:56:00.674Z,45.71
2023-03-06T10:56:56.014Z,35.86
2023-03-06T10:57:56.035Z,35.36
2023-03-06T10:58:34.662Z,45.86
2023-03-06T10:58:56.002Z,35.00
2023-03-06T10:59:56.019Z,35.09
2023-03-06T11:00:55.948Z,33.98
2023-03-06T11:01:56.035Z,33.48
2023-03-06T11:02:47.076Z,45.97
2023-03-06T11:03:55.944Z,33.70
2023-03-06T11:04:55.965Z,33.45
2023-03-06T11:05:54.926Z,32.99
2023-03-06T11:06:55.922Z,32.77
2023-03-06T11:07:55.911Z,32.69
2023-03-06T11:08:55.942Z,32.63
2023-03-06T11:09:56.017Z,32.59
2023-03-06T11:10:31.343Z,43.92
2023-03-06T11:10:56.036Z,32.58
2023-03-06T11:11:56.085Z,32.54
2023-03-06T11:12:50.210Z,44.40
2023-03-06T11:13:50.742Z,44.47
2023-03-06T11:14:50.997Z,43.73
2023-03-06T11:15:56.415Z,32.82
2023-03-06T11:16:02.487Z,43.31
2023-03-06T11:16:55.351Z,32.77
2023-03-06T11:17:56.400Z,32.89
2023-03-06T11:18:56.489Z,32.92
2023-03-06T11:19:56.512Z,33.10
2023-03-06T11:20:55.567Z,33.26
2023-03-06T11:21:56.620Z,33.18
2023-03-06T11:22:56.674Z,33.40
2023-03-06T11:23:56.724Z,33.32
2023-03-06T11:24:56.764Z,33.26
2023-03-06T11:25:02.629Z,43.88
2023-03-06T11:25:56.975Z,33.62
2023-03-06T11:26:56.857Z,33.65
2023-03-06T11:27:08.706Z,43.73
2023-03-06T11:27:56.899Z,33.68
2023-03-06T11:28:21.806Z,43.97
2023-03-06T11:28:56.995Z,33.49
2023-03-06T11:29:56.032Z,33.57
2023-03-06T11:30:57.014Z,33.69
2023-03-06T11:31:41.000Z,44.02
2023-03-06T11:32:57.103Z,33.69
2023-03-06T11:33:49.651Z,43.71
2023-03-06T11:34:57.174Z,33.79
2023-03-06T11:35:57.237Z,33.76
2023-03-06T11:36:07.147Z,42.37
2023-03-06T11:36:57.282Z,33.74
2023-03-06T11:37:57.291Z,33.86
2023-03-06T11:38:57.342Z,34.98
2023-03-06T11:39:45.831Z,42.76
2023-03-06T11:40:47.004Z,43.10
2023-03-06T11:41:46.926Z,42.88
2023-03-06T11:42:46.714Z,41.82
2023-03-06T11:43:46.906Z,43.10
2023-03-06T11:44:56.639Z,34.41
2023-03-06T11:45:57.735Z,34.63
2023-03-06T11:46:05.440Z,43.99
2023-03-06T11:46:57.805Z,34.57
2023-03-06T11:47:57.822Z,34.12
2023-03-06T11:48:56.883Z,33.78
2023-03-06T11:49:57.974Z,33.95
2023-03-06T11:50:58.007Z,33.77
2023-03-06T11:51:58.064Z,33.83
2023-03-06T11:52:58.136Z,33.50
2023-03-06T11:53:58.199Z,33.23
2023-03-06T11:54:57.238Z,33.18
2023-03-06T11:55:58.288Z,33.15
2023-03-06T11:56:58.376Z,33.19
2023-03-06T11:57:58.412Z,33.14
2023-03-06T11:58:58.504Z,33.30
2023-03-06T11:59:58.529Z,33.31
2023-03-06T12:00:58.577Z,33.41
2023-03-06T12:01:58.632Z,33.48
2023-03-06T12:02:58.665Z,33.55
2023-03-06T12:03:58.706Z,33.73
2023-03-06T12:04:58.785Z,33.81
2023-03-06T12:05:58.800Z,33.81
2023-03-06T12:06:58.828Z,33.98
2023-03-06T12:07:58.870Z,33.99
2023-03-06T12:08:58.921Z,34.11
2023-03-06T12:09:46.906Z,41.97
2023-03-06T12:10:58.964Z,34.35
2023-03-06T12:11:59.002Z,34.27
2023-03-06T12:12:04.360Z,42.16
2023-03-06T12:12:59.044Z,34.46
2023-03-06T12:14:00.225Z,34.68
2023-03-06T12:14:59.068Z,34.62
2023-03-06T12:15:59.069Z,34.63
2023-03-06T12:16:59.048Z,34.70
2023-03-06T12:17:59.042Z,34.78
2023-03-06T12:18:08.432Z,43.07
2023-03-06T12:18:59.043Z,35.01